createdAt,value
2019-02-27T00:02:29.415Z,20.83
2019-02-27T00:04:58.499Z,20.07
2019-02-27T00:07:27.547Z,19.83
2019-02-27T00:09:56.808Z,19.77
2019-02-27T00:12:25.909Z,21.10
2019-02-27T00:14:54.987Z,19.97
2019-02-27T00:17:23.997Z,20.63
2019-02-27T00:19:53.042Z,20.80
2019-02-27T00:22:22.109Z,19.40
2019-02-27T00:24:51.200Z,19.50
2019-02-27T00:27:21.145Z,18.13
2019-02-27T00:29:50.143Z,18.00
2019-02-27T00:32:19.229Z,20.47
2019-02-27T00:34:48.540Z,20.40
2019-02-27T00:37:19.068Z,20.47
2019-02-27T00:39:48.367Z,20.23
2019-02-27T00:42:20.654Z,16.83
2019-02-27T00:44:48.509Z,19.57
2019-02-27T00:47:20.178Z,21.60
2019-02-27T00:49:48.611Z,16.93
2019-02-27T00:52:18.341Z,16.43
2019-02-27T00:54:47.833Z,21.03
2019-02-27T00:57:20.450Z,19.13
2019-02-27T00:59:47.598Z,19.30
2019-02-27T01:02:19.937Z,23.20
2019-02-27T01:04:47.396Z,20.50
2019-02-27T01:07:20.207Z,21.17
2019-02-27T01:09:48.138Z,18.90
2019-02-27T01:12:17.753Z,19.17
2019-02-27T01:14:47.409Z,19.87
2019-02-27T01:17:16.419Z,21.00
2019-02-27T01:19:45.486Z,20.63
2019-02-27T01:22:14.760Z,19.60
2019-02-27T01:24:43.787Z,18.87
2019-02-27T01:27:12.821Z,18.90
2019-02-27T01:29:41.882Z,22.10
2019-02-27T01:32:11.254Z,18.73
2019-02-27T01:34:44.171Z,19.57
2019-02-27T01:37:11.383Z,18.63
2019-02-27T01:39:41.838Z,21.57
2019-02-27T01:42:11.856Z,19.67
2019-02-27T01:45:01.887Z,19.43
2019-02-27T01:47:30.951Z,21.03
2019-02-27T01:50:00.334Z,19.30
2019-02-27T01:52:33.957Z,21.40
2019-02-27T01:55:00.629Z,19.70
2019-02-27T01:57:29.678Z,21.33
2019-02-27T01:59:59.081Z,21.80
2019-02-27T02:02:28.158Z,18.40
2019-02-27T02:04:57.473Z,18.50
2019-02-27T02:07:26.477Z,17.67
2019-02-27T02:09:55.879Z,20.70
2019-02-27T02:12:28.231Z,20.10
2019-02-27T02:15:34.921Z,20.37
2019-02-27T02:18:48.831Z,19.87
2019-02-27T02:21:51.823Z,20.50
2019-02-27T02:25:08.363Z,21.30
2019-02-27T02:28:14.767Z,19.33
2019-02-27T02:31:16.253Z,20.53
2019-02-27T02:34:21.937Z,21.17
2019-02-27T02:37:07.296Z,25.93
2019-02-27T02:40:05.679Z,18.17
2019-02-27T02:43:04.840Z,20.30
2019-02-27T02:45:46.083Z,20.27
2019-02-27T02:48:42.728Z,22.13
2019-02-27T02:51:56.149Z,20.07
2019-02-27T02:55:11.872Z,17.63
2019-02-27T02:57:54.466Z,15.50
2019-02-27T03:00:56.637Z,17.90
2019-02-27T03:03:45.971Z,20.50
2019-02-27T03:06:34.736Z,19.80
2019-02-27T03:09:30.039Z,20.33
2019-02-27T03:12:40.925Z,18.77
2019-02-27T03:15:34.082Z,22.47
2019-02-27T03:18:38.283Z,20.87
2019-02-27T03:21:33.528Z,21.80
2019-02-27T03:24:28.297Z,20.70
2019-02-27T03:27:30.552Z,19.80
2019-02-27T03:30:40.775Z,20.37
2019-02-27T03:33:48.078Z,21.57
2019-02-27T03:37:14.312Z,18.37
2019-02-27T03:40:33.463Z,18.30
2019-02-27T03:43:26.418Z,22.43
2019-02-27T03:46:33.213Z,15.67
2019-02-27T03:49:43.259Z,25.17
2019-02-27T03:52:52.435Z,16.90
2019-02-27T03:56:10.686Z,19.13
2019-02-27T03:59:42.452Z,20.40
2019-02-27T04:02:53.998Z,20.93
2019-02-27T04:06:21.361Z,19.37
2019-02-27T04:08:58.015Z,19.53
2019-02-27T04:11:27.574Z,22.37
2019-02-27T04:14:03.235Z,21.37
2019-02-27T04:16:32.635Z,21.10
2019-02-27T04:19:04.598Z,25.17
2019-02-27T04:21:33.041Z,23.90
2019-02-27T04:24:02.102Z,23.10
2019-02-27T04:26:31.132Z,32.13
2019-02-27T04:29:03.984Z,27.33
2019-02-27T04:31:31.529Z,25.17
2019-02-27T04:34:01.259Z,25.67
2019-02-27T04:36:30.532Z,28.60
2019-02-27T04:39:02.419Z,24.63
2019-02-27T04:41:31.551Z,26.03
2019-02-27T04:44:05.289Z,23.60
2019-02-27T04:46:31.777Z,24.10
2019-02-27T04:49:03.999Z,26.93
2019-02-27T04:51:31.858Z,26.10
2019-02-27T04:54:01.291Z,24.50
2019-02-27T04:56:30.293Z,27.37
2019-02-27T04:58:59.318Z,35.80
2019-02-27T05:01:28.418Z,36.20
2019-02-27T05:04:01.089Z,28.80
2019-02-27T05:06:28.595Z,26.03
2019-02-27T05:08:59.699Z,29.40
2019-02-27T05:11:28.469Z,42.93
2019-02-27T05:13:57.512Z,61.53
2019-02-27T05:16:26.540Z,46.63
2019-02-27T05:18:55.942Z,42.97
2019-02-27T05:21:25.353Z,44.20
2019-02-27T05:23:54.602Z,37.40
2019-02-27T05:26:27.065Z,35.57
2019-02-27T05:28:55.030Z,36.67
2019-02-27T05:31:24.124Z,34.93
2019-02-27T05:33:53.217Z,36.73
2019-02-27T05:36:22.244Z,35.23
2019-02-27T05:38:51.938Z,27.77
2019-02-27T05:41:21.005Z,26.77
2019-02-27T05:43:50.028Z,30.13
2019-02-27T05:46:19.540Z,26.63
2019-02-27T05:48:50.960Z,26.43
2019-02-27T05:51:19.486Z,23.97
2019-02-27T05:53:48.539Z,24.57
2019-02-27T05:56:17.573Z,24.07
2019-02-27T05:58:47.098Z,29.10
2019-02-27T06:01:16.100Z,25.90
2019-02-27T06:03:45.162Z,24.40
2019-02-27T06:06:14.414Z,27.10
2019-02-27T06:08:43.825Z,26.03
2019-02-27T06:11:12.866Z,25.27
2019-02-27T06:13:41.874Z,27.47
2019-02-27T06:16:11.040Z,25.00
2019-02-27T06:18:40.802Z,24.67
2019-02-27T06:21:09.972Z,26.00
2019-02-27T06:23:39.177Z,25.03
2019-02-27T06:26:08.191Z,22.77
2019-02-27T06:28:37.694Z,26.23
2019-02-27T06:31:06.701Z,22.97
2019-02-27T06:33:35.724Z,21.50
2019-02-27T06:36:05.307Z,23.43
2019-02-27T06:38:35.548Z,27.07
2019-02-27T06:41:04.594Z,24.70
2019-02-27T06:43:33.620Z,23.10
2019-02-27T06:46:02.677Z,24.43
2019-02-27T06:48:32.381Z,27.93
2019-02-27T06:51:01.650Z,23.37
2019-02-27T06:53:30.710Z,27.93
2019-02-27T06:56:02.759Z,24.77
2019-02-27T06:58:30.522Z,24.30
2019-02-27T07:00:59.553Z,24.87
2019-02-27T07:03:29.527Z,21.30
2019-02-27T07:05:59.356Z,25.60
2019-02-27T07:08:28.746Z,24.13
2019-02-27T07:11:09.915Z,22.50
2019-02-27T07:13:29.912Z,20.97
2019-02-27T07:15:59.083Z,20.40
2019-02-27T07:18:28.186Z,20.67
2019-02-27T07:20:58.478Z,19.03
2019-02-27T07:23:28.580Z,19.90
2019-02-27T07:25:57.656Z,15.23
2019-02-27T07:28:26.693Z,15.83
2019-02-27T07:30:56.196Z,20.27
2019-02-27T07:33:25.254Z,16.27
2019-02-27T07:35:54.602Z,15.97
2019-02-27T07:38:25.515Z,17.90
2019-02-27T07:40:54.814Z,20.10
2019-02-27T07:43:23.854Z,27.13
2019-02-27T07:45:54.373Z,23.50
2019-02-27T07:48:23.577Z,16.17
2019-02-27T07:50:52.982Z,20.47
2019-02-27T07:53:22.198Z,18.30
2019-02-27T07:55:51.216Z,16.10
2019-02-27T07:58:20.225Z,23.30
2019-02-27T08:00:49.950Z,17.67
2019-02-27T08:03:19.578Z,19.57
2019-02-27T08:05:48.988Z,30.93
2019-02-27T08:08:18.036Z,21.07
2019-02-27T08:10:47.170Z,19.77
2019-02-27T08:13:16.558Z,23.57
2019-02-27T08:15:45.580Z,28.30
2019-02-27T08:18:14.689Z,20.77
2019-02-27T08:20:44.412Z,18.10
2019-02-27T08:23:15.510Z,20.70
2019-02-27T08:25:45.127Z,16.33
2019-02-27T08:28:14.592Z,19.97
2019-02-27T08:30:43.666Z,19.47
2019-02-27T08:33:15.208Z,19.07
2019-02-27T08:35:44.157Z,20.03
2019-02-27T08:38:13.588Z,22.03
2019-02-27T08:40:42.631Z,21.17
2019-02-27T08:43:12.227Z,20.73
2019-02-27T08:45:41.717Z,22.97
2019-02-27T08:48:11.180Z,21.70
2019-02-27T08:50:40.586Z,24.23
2019-02-27T08:53:09.716Z,22.00
2019-02-27T08:55:39.826Z,17.83
2019-02-27T08:58:09.088Z,20.60
2019-02-27T09:00:39.452Z,17.17
2019-02-27T09:03:08.486Z,18.70
2019-02-27T09:05:38.080Z,15.27
2019-02-27T09:08:09.877Z,18.85
2019-02-27T09:10:38.094Z,21.25
2019-02-27T09:13:07.792Z,16.82
2019-02-27T09:15:36.841Z,16.67
2019-02-27T09:18:05.877Z,16.75
2019-02-27T09:20:39.950Z,14.87
2019-02-27T09:23:09.336Z,13.45
2019-02-27T09:25:38.358Z,12.82
2019-02-27T09:28:09.419Z,13.43
2019-02-27T09:30:38.536Z,14.50
2019-02-27T09:33:07.570Z,14.10
2019-02-27T09:35:38.766Z,12.88
2019-02-27T09:38:08.697Z,11.18
2019-02-27T09:40:40.311Z,15.10
2019-02-27T09:43:09.444Z,14.63
2019-02-27T09:45:38.764Z,11.08
2019-02-27T09:48:08.716Z,11.50
2019-02-27T09:50:47.728Z,12.50
2019-02-27T09:53:13.568Z,11.90
2019-02-27T09:55:43.156Z,15.90
2019-02-27T09:58:12.576Z,12.63
2019-02-27T10:00:45.542Z,12.70
2019-02-27T10:03:19.762Z,12.65
2019-02-27T10:05:45.900Z,11.55
2019-02-27T10:08:15.002Z,13.30
2019-02-27T10:10:45.810Z,16.17
2019-02-27T10:13:15.098Z,13.10
2019-02-27T10:15:44.126Z,14.05
2019-02-27T10:18:13.182Z,13.85
2019-02-27T10:20:42.198Z,11.60
2019-02-27T10:23:11.242Z,11.88
2019-02-27T10:25:43.194Z,16.48
2019-02-27T10:28:11.114Z,14.30
2019-02-27T10:30:40.123Z,12.33
2019-02-27T10:33:11.142Z,13.80
2019-02-27T10:35:39.937Z,15.58
2019-02-27T10:38:08.970Z,15.28
2019-02-27T10:40:37.991Z,13.80
2019-02-27T10:43:07.022Z,17.12
2019-02-27T10:45:36.314Z,12.35
2019-02-27T10:48:05.608Z,17.50
2019-02-27T10:50:36.096Z,15.60
2019-02-27T10:53:05.513Z,16.02
2019-02-27T10:55:35.155Z,13.53
2019-02-27T10:58:04.191Z,14.38
2019-02-27T11:00:33.517Z,19.40
2019-02-27T11:03:02.841Z,17.30
2019-02-27T11:05:32.747Z,18.17
2019-02-27T11:08:01.339Z,15.05
2019-02-27T11:10:30.629Z,17.50
2019-02-27T11:12:59.709Z,15.93
2019-02-27T11:15:28.763Z,20.32
2019-02-27T11:17:57.775Z,16.82
2019-02-27T11:20:27.049Z,17.42
2019-02-27T11:22:56.415Z,17.90
2019-02-27T11:25:26.405Z,16.42
2019-02-27T11:27:56.738Z,16.60
2019-02-27T11:30:35.931Z,18.02
2019-02-27T11:33:02.362Z,20.70
2019-02-27T11:35:31.365Z,18.45
2019-02-27T11:38:00.406Z,20.52
2019-02-27T11:40:29.717Z,21.37
2019-02-27T11:43:00.953Z,19.23
2019-02-27T11:45:29.864Z,19.52
2019-02-27T11:47:59.011Z,18.55
2019-02-27T11:50:28.108Z,20.70
2019-02-27T11:53:01.888Z,19.85
2019-02-27T11:55:28.849Z,25.62
2019-02-27T11:57:58.467Z,22.62
2019-02-27T12:00:29.266Z,21.50
2019-02-27T12:02:58.669Z,19.17
2019-02-27T12:05:32.568Z,21.00
2019-02-27T12:07:58.556Z,20.20
2019-02-27T12:10:28.285Z,21.60
2019-02-27T12:13:00.799Z,22.05
2019-02-27T12:15:29.037Z,20.48
2019-02-27T12:18:00.488Z,18.17
2019-02-27T12:20:29.173Z,22.75
2019-02-27T12:22:58.346Z,20.08
2019-02-27T12:25:29.972Z,21.80
2019-02-27T12:27:58.629Z,23.83
2019-02-27T12:30:27.901Z,22.52
2019-02-27T12:32:57.327Z,21.68
2019-02-27T12:35:28.004Z,21.12
2019-02-27T12:37:57.351Z,20.05
2019-02-27T12:40:26.500Z,22.62
2019-02-27T12:42:55.514Z,21.15
2019-02-27T12:45:26.646Z,21.48
2019-02-27T12:47:55.857Z,27.30
2019-02-27T12:50:26.894Z,21.12
2019-02-27T12:52:56.107Z,24.20
2019-02-27T12:55:25.307Z,24.40
2019-02-27T12:57:54.346Z,21.37
2019-02-27T13:00:25.967Z,24.72
2019-02-27T13:02:56.277Z,26.90
2019-02-27T13:05:27.347Z,24.52
2019-02-27T13:07:56.458Z,24.57
2019-02-27T13:10:25.774Z,24.18
2019-02-27T13:12:55.136Z,23.80
2019-02-27T13:15:24.382Z,26.23
2019-02-27T13:17:57.671Z,25.80
2019-02-27T13:20:25.764Z,28.05
2019-02-27T13:22:54.823Z,22.35
2019-02-27T13:25:24.879Z,25.23
2019-02-27T13:27:54.337Z,27.30
2019-02-27T13:30:23.362Z,25.20
2019-02-27T13:32:52.406Z,25.77
2019-02-27T13:35:22.953Z,25.23
2019-02-27T13:37:52.740Z,27.45
2019-02-27T13:40:21.926Z,26.05
2019-02-27T13:42:53.500Z,28.05
2019-02-27T13:45:23.291Z,27.70
2019-02-27T13:47:52.368Z,28.73
2019-02-27T13:50:23.444Z,31.90
2019-02-27T13:52:52.791Z,31.25
2019-02-27T13:55:22.002Z,32.10
2019-02-27T13:57:51.385Z,29.77
2019-02-27T14:00:26.167Z,29.77
2019-02-27T14:02:55.337Z,32.15
2019-02-27T14:05:24.666Z,35.48
2019-02-27T14:07:57.170Z,31.25
2019-02-27T14:10:25.905Z,31.82
2019-02-27T14:12:55.223Z,30.20
2019-02-27T14:15:27.307Z,32.23
2019-02-27T14:17:55.412Z,31.97
2019-02-27T14:20:27.075Z,32.40
2019-02-27T14:22:55.531Z,31.73
2019-02-27T14:25:28.514Z,32.73
2019-02-27T14:27:56.622Z,30.57
2019-02-27T14:30:28.139Z,36.00
2019-02-27T14:32:57.495Z,32.50
2019-02-27T14:35:26.575Z,35.23
2019-02-27T14:37:55.743Z,30.30
2019-02-27T14:40:25.108Z,29.85
2019-02-27T14:42:55.069Z,34.13
2019-02-27T14:45:24.312Z,30.97
2019-02-27T14:47:53.651Z,35.52
2019-02-27T14:50:23.470Z,33.38
2019-02-27T14:52:52.526Z,32.67
2019-02-27T14:55:22.291Z,34.38
2019-02-27T14:57:52.001Z,29.72
2019-02-27T15:00:24.483Z,33.48
2019-02-27T15:02:55.613Z,33.40
2019-02-27T15:05:25.019Z,34.60
2019-02-27T15:07:54.890Z,30.50
2019-02-27T15:10:24.071Z,36.35
2019-02-27T15:12:55.144Z,35.05
2019-02-27T15:15:26.137Z,34.75
2019-02-27T15:17:55.650Z,37.30
2019-02-27T15:20:25.882Z,38.57
2019-02-27T15:22:55.027Z,33.28
2019-02-27T15:25:24.728Z,33.75
2019-02-27T15:27:58.269Z,38.80
2019-02-27T15:30:25.931Z,36.30
2019-02-27T15:32:55.587Z,33.67
2019-02-27T15:35:24.728Z,40.73
2019-02-27T15:37:54.255Z,38.95
2019-02-27T15:40:28.371Z,37.97
2019-02-27T15:42:55.156Z,36.45
2019-02-27T15:45:24.907Z,39.23
2019-02-27T15:47:54.158Z,39.47
2019-02-27T15:50:24.387Z,37.30
2019-02-27T15:52:53.670Z,37.30
2019-02-27T15:55:24.200Z,35.97
2019-02-27T15:57:54.629Z,41.80
2019-02-27T16:00:24.267Z,42.17
2019-02-27T16:02:54.640Z,34.60
2019-02-27T16:05:29.866Z,38.17
2019-02-27T16:07:56.209Z,40.70
2019-02-27T16:10:27.192Z,39.50
2019-02-27T16:12:59.676Z,36.27
2019-02-27T16:15:28.675Z,38.43
2019-02-27T16:17:58.619Z,44.73
2019-02-27T16:20:28.733Z,53.00
2019-02-27T16:22:58.597Z,42.30
2019-02-27T16:25:28.255Z,51.60
2019-02-27T16:27:58.196Z,45.27
2019-02-27T16:30:32.440Z,40.70
2019-02-27T16:33:01.624Z,38.07
2019-02-27T16:35:31.608Z,43.53
2019-02-27T16:38:01.685Z,40.87
2019-02-27T16:40:30.922Z,42.50
2019-02-27T16:43:00.506Z,44.20
2019-02-27T16:45:33.846Z,39.87
2019-02-27T16:48:02.117Z,35.83
2019-02-27T16:50:31.355Z,36.73
2019-02-27T16:53:01.013Z,39.67
2019-02-27T16:55:35.601Z,41.77
2019-02-27T16:58:02.234Z,46.00
2019-02-27T17:00:32.648Z,32.97
2019-02-27T17:03:02.381Z,40.37
2019-02-27T17:05:32.923Z,33.27
2019-02-27T17:08:03.037Z,39.73
2019-02-27T17:10:32.905Z,39.47
2019-02-27T17:13:03.179Z,39.73
2019-02-27T17:15:35.848Z,35.63
2019-02-27T17:18:09.542Z,42.03
2019-02-27T17:20:39.345Z,43.67
2019-02-27T17:23:10.932Z,51.33
2019-02-27T17:25:40.186Z,44.33
2019-02-27T17:28:09.419Z,49.40
2019-02-27T17:30:39.332Z,48.30
2019-02-27T17:33:08.758Z,36.93
2019-02-27T17:35:38.658Z,37.30
2019-02-27T17:38:10.759Z,39.40
2019-02-27T17:40:39.943Z,42.17
2019-02-27T17:43:09.964Z,42.30
2019-02-27T17:45:39.956Z,44.70
2019-02-27T17:48:12.255Z,47.60
2019-02-27T17:50:40.504Z,46.60
2019-02-27T17:53:10.487Z,48.97
2019-02-27T17:55:41.694Z,50.63
2019-02-27T17:58:11.512Z,78.53
2019-02-27T18:00:42.355Z,66.50
2019-02-27T18:03:11.383Z,166.33
2019-02-27T18:05:40.383Z,71.67
2019-02-27T18:08:09.469Z,52.53
2019-02-27T18:10:38.890Z,51.80
2019-02-27T18:13:08.388Z,42.23
2019-02-27T18:15:37.423Z,50.20
2019-02-27T18:18:09.113Z,37.33
2019-02-27T18:20:37.597Z,45.77
2019-02-27T18:23:06.885Z,42.73
2019-02-27T18:25:40.875Z,40.13
2019-02-27T18:28:06.805Z,39.93
2019-02-27T18:30:35.913Z,40.70
2019-02-27T18:33:05.345Z,38.03
2019-02-27T18:35:34.746Z,41.50
2019-02-27T18:38:04.196Z,34.53
2019-02-27T18:40:33.275Z,38.90
2019-02-27T18:43:02.647Z,43.90
2019-02-27T18:45:32.174Z,45.50
2019-02-27T18:48:01.613Z,39.60
2019-02-27T18:50:30.689Z,40.97
2019-02-27T18:52:59.715Z,44.53
2019-02-27T18:55:30.720Z,45.47
2019-02-27T18:57:59.584Z,39.50
2019-02-27T19:00:29.083Z,47.83
2019-02-27T19:02:58.869Z,50.13
2019-02-27T19:05:28.263Z,44.60
2019-02-27T19:07:57.606Z,48.17
2019-02-27T19:10:27.229Z,47.20
2019-02-27T19:12:56.253Z,49.20
2019-02-27T19:15:25.983Z,47.10
2019-02-27T19:17:55.407Z,43.33
2019-02-27T19:20:26.766Z,51.23
2019-02-27T19:22:55.783Z,52.27
2019-02-27T19:25:24.917Z,54.93
2019-02-27T19:27:53.963Z,53.50
2019-02-27T19:30:27.619Z,51.50
2019-02-27T19:33:01.511Z,54.03
2019-02-27T19:35:28.001Z,48.93
2019-02-27T19:37:57.268Z,46.63
2019-02-27T19:40:29.871Z,49.80
2019-02-27T19:42:59.365Z,50.67
2019-02-27T19:45:29.175Z,49.27
2019-02-27T19:47:58.222Z,52.80
2019-02-27T19:50:27.836Z,52.03
2019-02-27T19:52:56.905Z,55.07
2019-02-27T19:55:27.552Z,53.40
2019-02-27T19:57:56.633Z,52.23
2019-02-27T20:00:27.305Z,55.70
2019-02-27T20:03:01.063Z,52.33
2019-02-27T20:05:27.301Z,50.37
2019-02-27T20:07:57.096Z,48.50
2019-02-27T20:10:28.832Z,55.57
2019-02-27T20:12:56.932Z,50.07
2019-02-27T20:15:26.685Z,55.60
2019-02-27T20:17:56.259Z,48.50
2019-02-27T20:20:25.803Z,48.77
2019-02-27T20:22:55.619Z,48.60
2019-02-27T20:25:25.271Z,49.50
2019-02-27T20:27:54.341Z,58.20
2019-02-27T20:30:24.103Z,53.63
2019-02-27T20:32:53.179Z,57.03
2019-02-27T20:35:22.220Z,52.93
2019-02-27T20:37:51.519Z,48.47
2019-02-27T20:40:20.788Z,50.97
2019-02-27T20:42:54.448Z,52.30
2019-02-27T20:45:20.963Z,48.67
2019-02-27T20:47:50.726Z,54.90
2019-02-27T20:50:34.816Z,48.10
2019-02-27T20:53:03.335Z,49.63
2019-02-27T20:55:32.409Z,49.70
2019-02-27T20:58:01.532Z,47.47
2019-02-27T21:00:36.123Z,51.67
2019-02-27T21:03:02.650Z,58.67
2019-02-27T21:05:32.732Z,57.90
2019-02-27T21:08:02.557Z,49.83
2019-02-27T21:10:31.779Z,56.27
2019-02-27T21:13:00.854Z,55.60
2019-02-27T21:15:32.339Z,55.90
2019-02-27T21:18:01.050Z,58.83
2019-02-27T21:20:30.105Z,54.67
2019-02-27T21:23:00.257Z,59.73
2019-02-27T21:25:30.597Z,55.47
2019-02-27T21:27:59.912Z,55.20
2019-02-27T21:30:29.243Z,57.63
2019-02-27T21:32:58.304Z,59.40
2019-02-27T21:35:29.646Z,60.93
2019-02-27T21:37:58.465Z,60.17
2019-02-27T21:40:27.620Z,65.57
2019-02-27T21:42:56.978Z,58.07
2019-02-27T21:45:26.345Z,58.20
2019-02-27T21:47:55.617Z,55.33
2019-02-27T21:50:24.979Z,54.70
2019-02-27T21:52:55.675Z,55.63
2019-02-27T21:55:24.958Z,56.80
2019-02-27T21:57:54.089Z,60.07
2019-02-27T22:00:24.010Z,63.00
2019-02-27T22:02:54.032Z,52.93
2019-02-27T22:05:23.494Z,60.93
2019-02-27T22:07:52.540Z,58.67
2019-02-27T22:10:22.156Z,57.67
2019-02-27T22:12:51.187Z,60.20
2019-02-27T22:15:25.155Z,61.70
2019-02-27T22:17:54.647Z,53.23
2019-02-27T22:20:25.775Z,54.87
2019-02-27T22:22:54.471Z,51.73
2019-02-27T22:25:23.518Z,49.90
2019-02-27T22:27:52.588Z,49.30
2019-02-27T22:30:21.651Z,56.77
2019-02-27T22:32:50.890Z,53.57
2019-02-27T22:35:20.297Z,54.20
2019-02-27T22:37:52.466Z,53.00
2019-02-27T22:40:20.212Z,53.30
2019-02-27T22:42:49.390Z,50.67
2019-02-27T22:45:18.770Z,51.13
2019-02-27T22:47:47.896Z,57.33
2019-02-27T22:50:17.357Z,50.50
2019-02-27T22:52:46.388Z,50.17
2019-02-27T22:55:15.847Z,50.63
2019-02-27T22:57:45.960Z,55.47
2019-02-27T23:00:56.788Z,51.63
2019-02-27T23:03:26.764Z,55.27
2019-02-27T23:05:55.772Z,59.83
2019-02-27T23:08:24.802Z,61.23
2019-02-27T23:10:53.864Z,51.90
2019-02-27T23:13:23.232Z,49.50
2019-02-27T23:15:57.892Z,53.60
2019-02-27T23:18:23.722Z,47.00
2019-02-27T23:20:55.505Z,52.10
2019-02-27T23:23:23.841Z,49.10
2019-02-27T23:25:52.906Z,44.40
2019-02-27T23:28:21.976Z,38.53
2019-02-27T23:30:50.998Z,36.87
2019-02-27T23:33:19.980Z,40.83
2019-02-27T23:35:50.182Z,43.83
2019-02-27T23:38:19.881Z,42.87
2019-02-27T23:40:50.023Z,44.50
2019-02-27T23:43:19.789Z,45.83
2019-02-27T23:45:48.888Z,50.00
2019-02-27T23:48:17.925Z,48.00
2019-02-27T23:50:46.950Z,50.03
2019-02-27T23:53:15.997Z,49.03
2019-02-27T23:55:45.671Z,54.03
2019-02-27T23:58:14.997Z,47.33
